CheckWX is a tool to help pilots better visualize weather data.  It is not intended as a substitute for an official pre-flight weather briefing.

15:43:15 UTC

KAIB METAR
Hopkins Field Airport
Nucla, Colorado, USA
Current

8 mins ago

KAIB 201535Z AUTO 00000KT 10SM SCT075 BKN090 BKN120 07/02 A2978 RMK AO2
Observed
May-20 @ 15:35 UTC
Visibility
10 SM
Flight Rules
VFR
Cloud Levels
  • Scattered at 7,500' AGL
  • Broken at 9,000' AGL
  • Broken at 12,000' AGL
Temperature
C / 45°F
Dewpoint
C / 36°F
Humidity
71%
Altimeter
29.78" Hg
Pressure
1008.42 hPa
Previous

28 mins ago

KAIB 201515Z AUTO 25005KT 10SM SCT075 BKN090 07/02 A2979 RMK AO2
Observed
May-20 @ 15:15 UTC
Wind
  • 250° at 5 KTS
Visibility
10 SM
Flight Rules
VFR
Cloud Levels
  • Scattered at 7,500' AGL
  • Broken at 9,000' AGL
Temperature
C / 45°F
Dewpoint
C / 36°F
Humidity
71%
Altimeter
29.79" Hg
Pressure
1008.82 hPa
Previous

48 mins ago

KAIB 201455Z AUTO 26003KT 10SM BKN090 BKN110 07/02 A2979 RMK AO2
Observed
May-20 @ 14:55 UTC
Wind
  • 260° at 3 KTS
Visibility
10 SM
Flight Rules
VFR
Cloud Levels
  • Broken at 9,000' AGL
  • Broken at 11,000' AGL
Temperature
C / 45°F
Dewpoint
C / 36°F
Humidity
71%
Altimeter
29.79" Hg
Pressure
1008.82 hPa